createdAt,value
2019-04-25T00:03:44.864Z,97918.00
2019-04-25T00:14:28.833Z,97925.00
2019-04-25T00:25:17.588Z,97917.00
2019-04-25T00:35:56.463Z,97930.00
2019-04-25T00:46:43.291Z,97959.00
2019-04-25T00:57:26.038Z,97976.00
2019-04-25T01:08:10.032Z,97988.00
2019-04-25T01:18:53.668Z,97999.00
2019-04-25T01:29:37.061Z,98038.00
2019-04-25T01:40:20.143Z,98037.00
2019-04-25T01:51:04.277Z,98035.00
2019-04-25T02:01:48.993Z,98040.00
2019-04-25T02:12:30.278Z,98027.00
2019-04-25T02:23:14.503Z,98041.00
2019-04-25T02:34:01.181Z,98047.00
2019-04-25T02:44:44.543Z,98077.00
2019-04-25T02:55:31.750Z,98082.00
2019-04-25T03:06:12.290Z,98097.00
2019-04-25T03:16:58.547Z,98093.00
2019-04-25T03:27:38.877Z,98110.00
2019-04-25T03:38:24.271Z,98141.00
2019-04-25T03:49:06.069Z,98169.00
2019-04-25T03:59:48.196Z,98174.00
2019-04-25T04:10:33.250Z,98200.00
2019-04-25T04:21:15.915Z,98192.00
2019-04-25T04:31:57.304Z,98199.00
2019-04-25T04:42:43.518Z,98192.00
2019-04-25T04:53:26.805Z,98167.00
2019-04-25T05:04:10.604Z,98121.00
2019-04-25T05:14:54.266Z,97984.00
2019-04-25T05:25:41.612Z,97954.00
2019-04-25T05:36:23.861Z,98048.00
2019-04-25T05:47:12.231Z,97157.00
2019-04-25T05:57:54.621Z,97649.00
2019-04-25T06:08:37.750Z,97851.00
2019-04-25T06:19:25.209Z,97521.00
2019-04-25T06:30:08.418Z,97583.00
2019-04-25T06:40:50.695Z,97795.00
2019-04-25T06:51:32.093Z,97807.00
2019-04-25T07:02:16.942Z,97769.00
2019-04-25T07:13:00.710Z,97695.00
2019-04-25T07:23:38.373Z,97646.00
2019-04-25T07:34:23.991Z,97565.00
2019-04-25T07:45:05.980Z,97524.00
2019-04-25T07:55:45.590Z,97565.00
2019-04-25T08:06:29.383Z,97496.00
2019-04-25T08:17:14.458Z,97353.00
2019-04-25T08:27:59.184Z,97160.00
2019-04-25T08:38:44.760Z,97057.00
2019-04-25T08:49:18.482Z,96932.00
2019-04-25T09:00:01.112Z,97027.00
2019-04-25T09:10:45.784Z,97082.00
2019-04-25T09:21:28.117Z,97002.00
2019-04-25T09:32:11.772Z,96957.00
2019-04-25T09:42:47.036Z,96746.00
2019-04-25T09:53:29.378Z,96692.00
2019-04-25T10:04:09.371Z,96686.00
2019-04-25T10:14:54.276Z,96587.00
2019-04-25T10:25:36.251Z,96497.00
2019-04-25T10:36:12.091Z,96486.00
2019-04-25T10:46:57.983Z,96437.00
2019-04-25T10:57:45.165Z,96436.00
2019-04-25T11:08:24.528Z,96357.00
2019-04-25T11:19:06.273Z,96326.00
2019-04-25T11:29:49.348Z,96346.00
2019-04-25T11:40:34.615Z,96355.00
2019-04-25T11:51:19.037Z,96199.00
2019-04-25T12:01:57.417Z,96196.00
2019-04-25T12:12:40.748Z,96183.00
2019-04-25T12:23:23.395Z,96185.00
2019-04-25T12:34:00.837Z,96117.00
2019-04-25T12:44:43.473Z,96082.00
2019-04-25T12:55:23.928Z,95856.00
2019-04-25T13:06:00.870Z,95874.00
2019-04-25T13:16:44.380Z,95863.00
2019-04-25T13:27:26.849Z,95731.00
2019-04-25T13:38:12.464Z,95696.00
2019-04-25T13:48:56.886Z,95722.00
2019-04-25T13:59:44.353Z,95659.00
2019-04-25T14:10:26.469Z,95680.00
2019-04-25T14:21:03.498Z,95780.00
2019-04-25T14:31:48.567Z,95774.00
2019-04-25T14:42:30.705Z,95794.00
2019-04-25T14:53:14.743Z,95826.00
2019-04-25T15:03:57.926Z,95798.00
2019-04-25T15:14:44.329Z,95784.00
2019-04-25T15:25:23.774Z,95821.00
2019-04-25T15:36:04.955Z,95895.00
2019-04-25T15:46:48.321Z,95952.00
2019-04-25T15:57:23.432Z,96009.00
2019-04-25T16:08:01.347Z,95986.00
2019-04-25T16:18:38.289Z,96004.00
2019-04-25T17:00:58.046Z,96393.00
2019-04-25T17:11:36.081Z,96489.00
2019-04-25T17:22:09.951Z,96584.00
2019-04-25T17:32:53.534Z,96652.00
2019-04-25T17:43:21.924Z,96726.00
2019-04-25T17:54:03.161Z,96805.00
2019-04-25T18:04:43.353Z,96860.00
2019-04-25T18:15:22.589Z,96964.00
2019-04-25T18:26:03.302Z,97046.00
2019-04-25T18:36:43.129Z,97092.00
2019-04-25T18:47:21.550Z,97150.00
2019-04-25T18:58:04.472Z,97214.00
2019-04-25T19:08:34.589Z,97240.00
2019-04-25T19:19:15.489Z,97283.00
2019-04-25T19:29:56.348Z,97259.00
2019-04-25T19:40:34.378Z,97311.00
2019-04-25T19:51:10.736Z,97324.00
2019-04-25T20:01:52.730Z,97361.00
2019-04-25T20:12:34.399Z,97403.00
2019-04-25T20:23:09.352Z,97391.00
2019-04-25T20:33:42.734Z,97446.00
2019-04-25T20:44:19.672Z,97407.00
2019-04-25T20:55:01.098Z,97417.00
2019-04-25T21:05:38.228Z,97407.00
2019-04-25T21:16:19.869Z,97461.00
2019-04-25T21:27:02.686Z,97528.00
2019-04-25T21:37:32.481Z,97560.00
2019-04-25T21:48:12.945Z,97553.00
2019-04-25T21:58:53.356Z,97638.00
2019-04-25T22:09:35.682Z,97621.00
2019-04-25T22:20:18.028Z,97639.00
2019-04-25T22:31:03.459Z,97636.00
2019-04-25T22:41:47.775Z,97633.00
2019-04-25T22:52:29.258Z,97654.00
2019-04-25T23:03:11.433Z,97662.00
2019-04-25T23:13:54.746Z,97696.00
2019-04-25T23:24:39.300Z,97731.00
2019-04-25T23:35:30.808Z,97706.00
2019-04-25T23:46:07.445Z,97692.00
2019-04-25T23:56:50.698Z,97734.00
